FDX784 VOMM-VIDP
Flight info
| Callsign | FDX784 |
|---|---|
| Flight time | 2h 18m |
| Altitude | 36000 |
| Route | KAMGU2B KAMGU Q24 BAVOX BAVOX6G |
| Aircraft | B77L/H-SDE1E2E3FGHIJ2J3J4J5M1RWXY/LB1D1 |
Departure
| Time | 2026-04-30 08:24 |
|---|---|
| Airport | Chennai International Airport (VOMM) |
Arrival
| Time | 2026-04-30 10:42 |
|---|---|
| Airport | Indira Gandhi International Airport (VIDP) |
| Time | Latitude | Longitude | Altitude | Speed | Heading |
|---|---|---|---|---|---|
| 2026-04-30 07:43 | 12.99029 | 80.17671 | 64 ft | 0 kts | 135° |
| 2026-04-30 08:15 | 12.99033 | 80.17666 | 55 ft | 2 kts | 135° |
| 2026-04-30 08:15 | 12.99045 | 80.17655 | 55 ft | 2 kts | 135° |
| 2026-04-30 08:15 | 12.99056 | 80.17643 | 55 ft | 2 kts | 135° |
| 2026-04-30 08:15 | 12.99068 | 80.17631 | 55 ft | 2 kts | 129° |
| 2026-04-30 08:16 | 12.99078 | 80.17615 | 55 ft | 3 kts | 119° |
| 2026-04-30 08:16 | 12.99087 | 80.17599 | 55 ft | 3 kts | 119° |
| 2026-04-30 08:16 | 12.99094 | 80.17584 | 55 ft | 1 kts | 102° |
| 2026-04-30 08:16 | 12.99095 | 80.17579 | 55 ft | 1 kts | 83° |
| 2026-04-30 08:17 | 12.99095 | 80.17578 | 55 ft | 0 kts | 80° |
| 2026-04-30 08:19 | 12.99096 | 80.17583 | 55 ft | 3 kts | 80° |
| 2026-04-30 08:19 | 12.99104 | 80.17616 | 55 ft | 3 kts | 75° |
| 2026-04-30 08:20 | 12.99118 | 80.17656 | 58 ft | 8 kts | 65° |
| 2026-04-30 08:20 | 12.99171 | 80.17696 | 57 ft | 11 kts | 20° |
| 2026-04-30 08:20 | 12.99222 | 80.17765 | 57 ft | 14 kts | 67° |
| 2026-04-30 08:20 | 12.99262 | 80.17870 | 60 ft | 16 kts | 69° |
| 2026-04-30 08:21 | 12.99303 | 80.17978 | 61 ft | 16 kts | 69° |
| 2026-04-30 08:21 | 12.99334 | 80.18058 | 58 ft | 9 kts | 68° |
| 2026-04-30 08:21 | 12.99356 | 80.18119 | 59 ft | 9 kts | 73° |
| 2026-04-30 08:21 | 12.99361 | 80.18184 | 66 ft | 9 kts | 89° |
| 2026-04-30 08:22 | 12.99372 | 80.18256 | 64 ft | 20 kts | 73° |
| 2026-04-30 08:22 | 12.99427 | 80.18321 | 57 ft | 24 kts | 38° |
| 2026-04-30 08:22 | 12.99476 | 80.18362 | 60 ft | 0 kts | 40° |
| 2026-04-30 08:22 | 12.99500 | 80.18383 | 60 ft | 7 kts | 40° |
| 2026-04-30 08:23 | 12.99539 | 80.18413 | 59 ft | 7 kts | 25° |
| 2026-04-30 08:23 | 12.99565 | 80.18380 | 63 ft | 7 kts | 274° |
| 2026-04-30 08:23 | 12.99547 | 80.18307 | 63 ft | 20 kts | 249° |
| 2026-04-30 08:23 | 12.99463 | 80.18088 | 61 ft | 48 kts | 249° |
| 2026-04-30 08:24 | 12.99294 | 80.17643 | 63 ft | 88 kts | 248° |
| 2026-04-30 08:24 | 12.98980 | 80.16802 | 56 ft | 164 kts | 249° |
| 2026-04-30 08:24 | 12.98487 | 80.15507 | 160 ft | 215 kts | 250° |
| 2026-04-30 08:24 | 12.98026 | 80.14080 | 1048 ft | 202 kts | 253° |
| 2026-04-30 08:25 | 12.97618 | 80.12709 | 1965 ft | 205 kts | 253° |
| 2026-04-30 08:25 | 12.97178 | 80.11270 | 2630 ft | 217 kts | 252° |
| 2026-04-30 08:25 | 12.96756 | 80.09765 | 3425 ft | 222 kts | 256° |
| 2026-04-30 08:25 | 12.96384 | 80.08237 | 4343 ft | 219 kts | 256° |
| 2026-04-30 08:26 | 12.95990 | 80.06734 | 5200 ft | 220 kts | 255° |
| 2026-04-30 08:26 | 12.95580 | 80.05199 | 5872 ft | 227 kts | 255° |
| 2026-04-30 08:26 | 12.95125 | 80.03607 | 6474 ft | 238 kts | 252° |
| 2026-04-30 08:26 | 12.94595 | 80.01995 | 7323 ft | 237 kts | 250° |
| 2026-04-30 08:27 | 12.94007 | 80.00438 | 8247 ft | 231 kts | 251° |
| 2026-04-30 08:27 | 12.93693 | 79.98831 | 8906 ft | 237 kts | 272° |
| 2026-04-30 08:27 | 12.94009 | 79.97124 | 9092 ft | 259 kts | 294° |
| 2026-04-30 08:27 | 12.95068 | 79.95564 | 9715 ft | 268 kts | 320° |
| 2026-04-30 08:28 | 12.96676 | 79.94678 | 10495 ft | 270 kts | 348° |
| 2026-04-30 08:28 | 12.98561 | 79.94472 | 11171 ft | 275 kts | 1° |
| 2026-04-30 08:28 | 13.00482 | 79.94614 | 11904 ft | 280 kts | 6° |
| 2026-04-30 08:28 | 13.02485 | 79.94877 | 12424 ft | 295 kts | 8° |
| 2026-04-30 08:29 | 13.04547 | 79.95219 | 12868 ft | 310 kts | 9° |
| 2026-04-30 08:29 | 13.06688 | 79.95569 | 13581 ft | 312 kts | 5° |
| 2026-04-30 08:29 | 13.08860 | 79.95623 | 14389 ft | 313 kts | 356° |
| 2026-04-30 08:29 | 13.11020 | 79.95339 | 15169 ft | 313 kts | 347° |
| 2026-04-30 08:30 | 13.13135 | 79.94823 | 15906 ft | 312 kts | 346° |
| 2026-04-30 08:30 | 13.15167 | 79.94023 | 16375 ft | 318 kts | 325° |
| 2026-04-30 08:30 | 13.16780 | 79.92442 | 16646 ft | 330 kts | 303° |
| 2026-04-30 08:30 | 13.17736 | 79.90255 | 16748 ft | 344 kts | 282° |
| 2026-04-30 08:31 | 13.17922 | 79.87767 | 16866 ft | 359 kts | 264° |
| 2026-04-30 08:31 | 13.17424 | 79.85204 | 17000 ft | 374 kts | 253° |
| 2026-04-30 08:31 | 13.16566 | 79.82624 | 17137 ft | 390 kts | 250° |
| 2026-04-30 08:31 | 13.15605 | 79.80011 | 17627 ft | 395 kts | 249° |
| 2026-04-30 08:32 | 13.14622 | 79.77398 | 18436 ft | 388 kts | 249° |
| 2026-04-30 08:32 | 13.13698 | 79.74852 | 19448 ft | 373 kts | 255° |
| 2026-04-30 08:32 | 13.13519 | 79.72259 | 20303 ft | 361 kts | 281° |
| 2026-04-30 08:32 | 13.14384 | 79.69893 | 21028 ft | 354 kts | 302° |
| 2026-04-30 08:33 | 13.15938 | 79.67943 | 21432 ft | 357 kts | 318° |
| 2026-04-30 08:33 | 13.17944 | 79.66407 | 21759 ft | 362 kts | 329° |
| 2026-04-30 08:33 | 13.20254 | 79.65383 | 22071 ft | 365 kts | 348° |
| 2026-04-30 08:33 | 13.22775 | 79.64976 | 22353 ft | 369 kts | 352° |
| 2026-04-30 08:34 | 13.25343 | 79.64663 | 22731 ft | 372 kts | 353° |
| 2026-04-30 08:34 | 13.27923 | 79.64368 | 23151 ft | 375 kts | 353° |
| 2026-04-30 08:34 | 13.30552 | 79.64065 | 23261 ft | 387 kts | 353° |
| 2026-04-30 08:34 | 13.33260 | 79.63742 | 23430 ft | 397 kts | 353° |
| 2026-04-30 08:35 | 13.36024 | 79.63401 | 23733 ft | 403 kts | 353° |
| 2026-04-30 08:35 | 13.38822 | 79.63046 | 24104 ft | 407 kts | 352° |
| 2026-04-30 08:35 | 13.41625 | 79.62684 | 24608 ft | 406 kts | 352° |
| 2026-04-30 08:35 | 13.44403 | 79.62321 | 25063 ft | 408 kts | 352° |
| 2026-04-30 08:36 | 13.47235 | 79.61948 | 25352 ft | 413 kts | 352° |
| 2026-04-30 08:36 | 13.50094 | 79.61571 | 25743 ft | 416 kts | 352° |
| 2026-04-30 08:36 | 13.52964 | 79.61192 | 26127 ft | 419 kts | 352° |
| 2026-04-30 08:36 | 13.55866 | 79.60809 | 26514 ft | 420 kts | 352° |
| 2026-04-30 08:37 | 13.58776 | 79.60424 | 26934 ft | 421 kts | 352° |
| 2026-04-30 08:37 | 13.61686 | 79.60040 | 27336 ft | 423 kts | 352° |
| 2026-04-30 08:37 | 13.64614 | 79.59653 | 27692 ft | 426 kts | 352° |
| 2026-04-30 08:37 | 13.67564 | 79.59263 | 28030 ft | 428 kts | 352° |
| 2026-04-30 08:38 | 13.70523 | 79.58872 | 28356 ft | 431 kts | 352° |
| 2026-04-30 08:38 | 13.73505 | 79.58478 | 28698 ft | 433 kts | 352° |
| 2026-04-30 08:38 | 13.76503 | 79.58083 | 29026 ft | 435 kts | 352° |
| 2026-04-30 08:38 | 13.79513 | 79.57685 | 29358 ft | 437 kts | 352° |
| 2026-04-30 08:39 | 13.82538 | 79.57284 | 29670 ft | 439 kts | 352° |
| 2026-04-30 08:39 | 13.85573 | 79.56883 | 29974 ft | 441 kts | 352° |
| 2026-04-30 08:39 | 13.88628 | 79.56479 | 30269 ft | 444 kts | 352° |
| 2026-04-30 08:39 | 13.91703 | 79.56072 | 30556 ft | 446 kts | 352° |
| 2026-04-30 08:40 | 13.94781 | 79.55664 | 30838 ft | 448 kts | 352° |
| 2026-04-30 08:40 | 13.97880 | 79.55254 | 31109 ft | 450 kts | 352° |
| 2026-04-30 08:40 | 14.00985 | 79.54843 | 31373 ft | 451 kts | 352° |
| 2026-04-30 08:40 | 14.04112 | 79.54429 | 31625 ft | 453 kts | 352° |
| 2026-04-30 08:41 | 14.07240 | 79.54014 | 31873 ft | 455 kts | 352° |
| 2026-04-30 08:41 | 14.10390 | 79.53596 | 32120 ft | 457 kts | 352° |
| 2026-04-30 08:41 | 14.13553 | 79.53176 | 32342 ft | 458 kts | 352° |
| 2026-04-30 08:41 | 14.16718 | 79.52757 | 32579 ft | 460 kts | 352° |
| 2026-04-30 08:42 | 14.19902 | 79.52334 | 32793 ft | 462 kts | 352° |
| 2026-04-30 08:42 | 14.23104 | 79.51910 | 33001 ft | 464 kts | 352° |
| 2026-04-30 08:42 | 14.26269 | 79.51490 | 33144 ft | 467 kts | 352° |
| 2026-04-30 08:42 | 14.29508 | 79.51059 | 33267 ft | 470 kts | 352° |
| 2026-04-30 08:43 | 14.32770 | 79.50626 | 33425 ft | 472 kts | 352° |
| 2026-04-30 08:43 | 14.35962 | 79.50202 | 33614 ft | 473 kts | 352° |
| 2026-04-30 08:43 | 14.39306 | 79.49757 | 33802 ft | 475 kts | 352° |
| 2026-04-30 08:43 | 14.42590 | 79.49321 | 33974 ft | 476 kts | 352° |
| 2026-04-30 08:44 | 14.45877 | 79.48883 | 34122 ft | 477 kts | 352° |
| 2026-04-30 08:44 | 14.49186 | 79.48443 | 34265 ft | 479 kts | 352° |
| 2026-04-30 08:44 | 14.52492 | 79.48003 | 34404 ft | 480 kts | 352° |
| 2026-04-30 08:44 | 14.55814 | 79.47562 | 34537 ft | 481 kts | 352° |
| 2026-04-30 08:45 | 14.59143 | 79.47118 | 34668 ft | 482 kts | 352° |
| 2026-04-30 08:45 | 14.62477 | 79.46674 | 34783 ft | 484 kts | 352° |
| 2026-04-30 08:45 | 14.65755 | 79.46138 | 34892 ft | 485 kts | 348° |
| 2026-04-30 08:45 | 14.69057 | 79.45422 | 35006 ft | 486 kts | 347° |
| 2026-04-30 08:46 | 14.72352 | 79.44639 | 35106 ft | 487 kts | 346° |
| 2026-04-30 08:46 | 14.75662 | 79.43830 | 35212 ft | 488 kts | 346° |
| 2026-04-30 08:46 | 14.78979 | 79.43022 | 35310 ft | 489 kts | 346° |
| 2026-04-30 08:47 | 14.85614 | 79.41441 | 35479 ft | 490 kts | 347° |
| 2026-04-30 08:47 | 14.92277 | 79.39891 | 35651 ft | 492 kts | 347° |
| 2026-04-30 08:48 | 14.98976 | 79.38344 | 35793 ft | 494 kts | 347° |
| 2026-04-30 08:48 | 15.05684 | 79.36795 | 35935 ft | 495 kts | 347° |
| 2026-04-30 08:49 | 15.12420 | 79.35235 | 36002 ft | 496 kts | 347° |
| 2026-04-30 08:49 | 15.19129 | 79.33680 | 36001 ft | 497 kts | 347° |
| 2026-04-30 08:50 | 15.25885 | 79.32112 | 36003 ft | 498 kts | 347° |
| 2026-04-30 08:50 | 15.32651 | 79.30541 | 36004 ft | 498 kts | 347° |
| 2026-04-30 08:51 | 15.39430 | 79.28966 | 35999 ft | 498 kts | 347° |
| 2026-04-30 08:51 | 15.46205 | 79.27391 | 35998 ft | 498 kts | 347° |
| 2026-04-30 08:52 | 15.52962 | 79.25820 | 36001 ft | 497 kts | 347° |
| 2026-04-30 08:52 | 15.59676 | 79.24257 | 36004 ft | 497 kts | 347° |
| 2026-04-30 08:53 | 15.66400 | 79.22691 | 36001 ft | 496 kts | 347° |
| 2026-04-30 08:53 | 15.73136 | 79.21120 | 35999 ft | 496 kts | 347° |
| 2026-04-30 08:54 | 15.79876 | 79.19548 | 36001 ft | 495 kts | 347° |
| 2026-04-30 08:54 | 15.86603 | 79.17979 | 36004 ft | 496 kts | 347° |
| 2026-04-30 08:55 | 15.93333 | 79.16406 | 36002 ft | 496 kts | 347° |
| 2026-04-30 08:55 | 16.00068 | 79.14832 | 35997 ft | 497 kts | 347° |
| 2026-04-30 08:56 | 16.06814 | 79.13255 | 36002 ft | 497 kts | 347° |
| 2026-04-30 08:56 | 16.13570 | 79.11673 | 36002 ft | 498 kts | 347° |
| 2026-04-30 08:57 | 16.20334 | 79.10089 | 36004 ft | 497 kts | 347° |
| 2026-04-30 08:57 | 16.27072 | 79.08510 | 35999 ft | 496 kts | 347° |
| 2026-04-30 08:58 | 16.33793 | 79.06933 | 36001 ft | 496 kts | 347° |
| 2026-04-30 08:58 | 16.40541 | 79.05350 | 36002 ft | 497 kts | 347° |
| 2026-04-30 08:59 | 16.47294 | 79.03763 | 36004 ft | 498 kts | 347° |
| 2026-04-30 08:59 | 16.54046 | 79.02176 | 36001 ft | 498 kts | 347° |
| 2026-04-30 09:00 | 16.60795 | 79.00589 | 36004 ft | 497 kts | 347° |
| 2026-04-30 09:00 | 16.67539 | 78.99002 | 35995 ft | 497 kts | 347° |
| 2026-04-30 09:01 | 16.74283 | 78.97413 | 36000 ft | 496 kts | 347° |
| 2026-04-30 09:01 | 16.80962 | 78.95839 | 36001 ft | 496 kts | 347° |
| 2026-04-30 09:02 | 16.91044 | 78.93460 | 36000 ft | 495 kts | 347° |
| 2026-04-30 09:02 | 16.97765 | 78.91873 | 36002 ft | 495 kts | 347° |
| 2026-04-30 09:03 | 17.04489 | 78.90284 | 36005 ft | 496 kts | 347° |
| 2026-04-30 09:03 | 17.11226 | 78.88690 | 36003 ft | 497 kts | 347° |
| 2026-04-30 09:04 | 17.17970 | 78.87094 | 36002 ft | 497 kts | 347° |
| 2026-04-30 09:04 | 17.24719 | 78.85496 | 36002 ft | 498 kts | 347° |
| 2026-04-30 09:05 | 17.31477 | 78.83894 | 35998 ft | 498 kts | 347° |
| 2026-04-30 09:05 | 17.38235 | 78.82291 | 36001 ft | 498 kts | 347° |
| 2026-04-30 09:06 | 17.44986 | 78.80688 | 36000 ft | 497 kts | 347° |
| 2026-04-30 09:06 | 17.51735 | 78.79085 | 36002 ft | 497 kts | 347° |
| 2026-04-30 09:07 | 17.58480 | 78.77482 | 36000 ft | 497 kts | 347° |
| 2026-04-30 09:07 | 17.64083 | 78.76148 | 35998 ft | 497 kts | 347° |
| 2026-04-30 09:08 | 17.70821 | 78.74544 | 36000 ft | 497 kts | 347° |
| 2026-04-30 09:08 | 17.77561 | 78.72938 | 36001 ft | 497 kts | 347° |
| 2026-04-30 09:09 | 17.84303 | 78.71331 | 36003 ft | 497 kts | 347° |
| 2026-04-30 09:09 | 17.91047 | 78.69722 | 36003 ft | 497 kts | 347° |
| 2026-04-30 09:10 | 17.97789 | 78.68111 | 36002 ft | 497 kts | 347° |
| 2026-04-30 09:10 | 18.04524 | 78.66501 | 36000 ft | 497 kts | 347° |
| 2026-04-30 09:11 | 18.11270 | 78.64888 | 36004 ft | 497 kts | 347° |
| 2026-04-30 09:11 | 18.18008 | 78.63275 | 35997 ft | 497 kts | 347° |
| 2026-04-30 09:12 | 18.24751 | 78.61660 | 36004 ft | 497 kts | 347° |
| 2026-04-30 09:12 | 18.31488 | 78.60044 | 36001 ft | 497 kts | 347° |
| 2026-04-30 09:13 | 18.38224 | 78.58428 | 36003 ft | 496 kts | 347° |
| 2026-04-30 09:13 | 18.44960 | 78.56810 | 36002 ft | 496 kts | 347° |
| 2026-04-30 09:14 | 18.51697 | 78.55190 | 36000 ft | 496 kts | 347° |
| 2026-04-30 09:14 | 18.58432 | 78.53570 | 36002 ft | 497 kts | 347° |
| 2026-04-30 09:15 | 18.65172 | 78.51948 | 36002 ft | 497 kts | 347° |
| 2026-04-30 09:15 | 18.71912 | 78.50324 | 36002 ft | 497 kts | 347° |
| 2026-04-30 09:16 | 18.78644 | 78.48700 | 36002 ft | 496 kts | 347° |
| 2026-04-30 09:16 | 18.85376 | 78.47076 | 36002 ft | 496 kts | 347° |
| 2026-04-30 09:17 | 18.92106 | 78.45450 | 36000 ft | 496 kts | 347° |
| 2026-04-30 09:17 | 18.98829 | 78.43825 | 36002 ft | 495 kts | 347° |
| 2026-04-30 09:18 | 19.05543 | 78.42201 | 36003 ft | 495 kts | 347° |
| 2026-04-30 09:18 | 19.12258 | 78.40574 | 35999 ft | 495 kts | 347° |
| 2026-04-30 09:19 | 19.18974 | 78.38937 | 36001 ft | 495 kts | 346° |
| 2026-04-30 09:19 | 19.25631 | 78.37203 | 36008 ft | 497 kts | 346° |
| 2026-04-30 09:20 | 19.32389 | 78.35410 | 36007 ft | 498 kts | 346° |
| 2026-04-30 09:20 | 19.39128 | 78.33638 | 36004 ft | 499 kts | 346° |
| 2026-04-30 09:21 | 19.45877 | 78.31871 | 36002 ft | 499 kts | 346° |
| 2026-04-30 09:21 | 19.52626 | 78.30101 | 35998 ft | 499 kts | 346° |
| 2026-04-30 09:22 | 19.59321 | 78.28344 | 36002 ft | 499 kts | 346° |
| 2026-04-30 09:22 | 19.66049 | 78.26580 | 35994 ft | 498 kts | 346° |
| 2026-04-30 09:23 | 19.72773 | 78.24816 | 36000 ft | 497 kts | 346° |
| 2026-04-30 09:23 | 19.79487 | 78.23052 | 36001 ft | 496 kts | 346° |
| 2026-04-30 09:24 | 19.86184 | 78.21290 | 36003 ft | 495 kts | 346° |
| 2026-04-30 09:24 | 19.92870 | 78.19530 | 36000 ft | 495 kts | 346° |
| 2026-04-30 09:25 | 19.99548 | 78.17771 | 36001 ft | 494 kts | 346° |
| 2026-04-30 09:25 | 20.06217 | 78.16012 | 36002 ft | 494 kts | 346° |
| 2026-04-30 09:26 | 20.12877 | 78.14254 | 36003 ft | 493 kts | 346° |
| 2026-04-30 09:26 | 20.19551 | 78.12491 | 36002 ft | 494 kts | 346° |
| 2026-04-30 09:27 | 20.26206 | 78.10732 | 36003 ft | 494 kts | 346° |
| 2026-04-30 09:27 | 20.32890 | 78.08963 | 36003 ft | 494 kts | 346° |
| 2026-04-30 09:28 | 20.39579 | 78.07190 | 36006 ft | 495 kts | 346° |
| 2026-04-30 09:28 | 20.46223 | 78.05429 | 36001 ft | 496 kts | 346° |
| 2026-04-30 09:29 | 20.52927 | 78.03650 | 36003 ft | 496 kts | 346° |
| 2026-04-30 09:29 | 20.59642 | 78.01892 | 35998 ft | 496 kts | 346° |
| 2026-04-30 09:30 | 20.66381 | 78.00245 | 36004 ft | 496 kts | 347° |
| 2026-04-30 09:30 | 20.73106 | 77.98623 | 36001 ft | 496 kts | 347° |
| 2026-04-30 09:31 | 20.79845 | 77.96981 | 36004 ft | 496 kts | 347° |
| 2026-04-30 09:31 | 20.86579 | 77.95327 | 36002 ft | 496 kts | 347° |
| 2026-04-30 09:32 | 20.93253 | 77.93684 | 36000 ft | 496 kts | 347° |
| 2026-04-30 09:32 | 20.99978 | 77.92028 | 36002 ft | 496 kts | 347° |
| 2026-04-30 09:33 | 21.06714 | 77.90369 | 35998 ft | 496 kts | 347° |
| 2026-04-30 09:33 | 21.13431 | 77.88713 | 36002 ft | 496 kts | 347° |
| 2026-04-30 09:34 | 21.20155 | 77.87053 | 36004 ft | 496 kts | 347° |
| 2026-04-30 09:34 | 21.26863 | 77.85396 | 35999 ft | 496 kts | 347° |
| 2026-04-30 09:35 | 21.33600 | 77.83731 | 36004 ft | 496 kts | 347° |
| 2026-04-30 09:35 | 21.40279 | 77.82077 | 36004 ft | 496 kts | 347° |
| 2026-04-30 09:36 | 21.47005 | 77.80411 | 36000 ft | 496 kts | 347° |
| 2026-04-30 09:36 | 21.53746 | 77.78739 | 36004 ft | 497 kts | 347° |
| 2026-04-30 09:37 | 21.60499 | 77.77063 | 36002 ft | 498 kts | 347° |
| 2026-04-30 09:37 | 21.67251 | 77.75386 | 36007 ft | 498 kts | 347° |
| 2026-04-30 09:38 | 21.74013 | 77.73704 | 36001 ft | 499 kts | 347° |
| 2026-04-30 09:38 | 21.80782 | 77.72019 | 36004 ft | 499 kts | 347° |
| 2026-04-30 09:39 | 21.87544 | 77.70334 | 35995 ft | 499 kts | 347° |
| 2026-04-30 09:39 | 21.94313 | 77.68645 | 35997 ft | 498 kts | 347° |
| 2026-04-30 09:40 | 22.01068 | 77.66958 | 36000 ft | 498 kts | 347° |
| 2026-04-30 09:40 | 22.07775 | 77.65275 | 36002 ft | 498 kts | 346° |
| 2026-04-30 09:41 | 22.14519 | 77.63527 | 35998 ft | 498 kts | 346° |
| 2026-04-30 09:41 | 22.21247 | 77.61766 | 36001 ft | 497 kts | 346° |
| 2026-04-30 09:42 | 22.27972 | 77.60011 | 35998 ft | 497 kts | 346° |
| 2026-04-30 09:42 | 22.34702 | 77.58258 | 36005 ft | 497 kts | 346° |
| 2026-04-30 09:43 | 22.41423 | 77.56507 | 36002 ft | 496 kts | 346° |
| 2026-04-30 09:43 | 22.48124 | 77.54759 | 36001 ft | 496 kts | 346° |
| 2026-04-30 09:44 | 22.54834 | 77.53007 | 36000 ft | 495 kts | 346° |
| 2026-04-30 09:44 | 22.61536 | 77.51254 | 36002 ft | 495 kts | 346° |
| 2026-04-30 09:45 | 22.68221 | 77.49505 | 36003 ft | 495 kts | 346° |
| 2026-04-30 09:45 | 22.74878 | 77.47760 | 35998 ft | 495 kts | 346° |
| 2026-04-30 09:46 | 22.81570 | 77.46006 | 36001 ft | 495 kts | 346° |
| 2026-04-30 09:46 | 22.88270 | 77.44247 | 35999 ft | 495 kts | 346° |
| 2026-04-30 09:47 | 22.94961 | 77.42489 | 36000 ft | 495 kts | 346° |
| 2026-04-30 09:47 | 23.01664 | 77.40726 | 35997 ft | 495 kts | 346° |
| 2026-04-30 09:48 | 23.08365 | 77.38961 | 36001 ft | 496 kts | 346° |
| 2026-04-30 09:48 | 23.15087 | 77.37189 | 36000 ft | 497 kts | 346° |
| 2026-04-30 09:49 | 23.21757 | 77.35429 | 36003 ft | 497 kts | 346° |
| 2026-04-30 09:49 | 23.28508 | 77.33794 | 35998 ft | 497 kts | 351° |
| 2026-04-30 09:50 | 23.35408 | 77.33247 | 36002 ft | 497 kts | 358° |
| 2026-04-30 09:50 | 23.42326 | 77.32994 | 36000 ft | 498 kts | 358° |
| 2026-04-30 09:51 | 23.49259 | 77.32716 | 36003 ft | 498 kts | 357° |
| 2026-04-30 09:51 | 23.56187 | 77.32401 | 36003 ft | 498 kts | 357° |
| 2026-04-30 09:52 | 23.63119 | 77.32072 | 36002 ft | 498 kts | 357° |
| 2026-04-30 09:52 | 23.70037 | 77.31744 | 36002 ft | 498 kts | 357° |
| 2026-04-30 09:53 | 23.76963 | 77.31417 | 35998 ft | 498 kts | 357° |
| 2026-04-30 09:53 | 23.83838 | 77.31093 | 36001 ft | 497 kts | 357° |
| 2026-04-30 09:54 | 23.90760 | 77.30767 | 36003 ft | 497 kts | 357° |
| 2026-04-30 09:54 | 23.97665 | 77.30441 | 36002 ft | 497 kts | 357° |
| 2026-04-30 09:55 | 24.03413 | 77.30170 | 36004 ft | 497 kts | 357° |
| 2026-04-30 09:55 | 24.10327 | 77.29843 | 35998 ft | 497 kts | 357° |
| 2026-04-30 09:56 | 24.17243 | 77.29515 | 36003 ft | 497 kts | 357° |
| 2026-04-30 09:56 | 24.24153 | 77.29188 | 35999 ft | 497 kts | 357° |
| 2026-04-30 09:57 | 24.31056 | 77.28860 | 36002 ft | 497 kts | 357° |
| 2026-04-30 09:57 | 24.37969 | 77.28532 | 36001 ft | 497 kts | 357° |
| 2026-04-30 09:58 | 24.44883 | 77.28203 | 36002 ft | 497 kts | 357° |
| 2026-04-30 09:58 | 24.51745 | 77.27876 | 36001 ft | 497 kts | 357° |
| 2026-04-30 09:59 | 24.65567 | 77.27217 | 36000 ft | 497 kts | 357° |
| 2026-04-30 10:00 | 24.75928 | 77.26739 | 36003 ft | 497 kts | 357° |
| 2026-04-30 10:01 | 24.86285 | 77.26297 | 36000 ft | 497 kts | 357° |
| 2026-04-30 10:02 | 24.96663 | 77.25846 | 36004 ft | 497 kts | 357° |
| 2026-04-30 10:02 | 25.03572 | 77.25557 | 36004 ft | 497 kts | 358° |
| 2026-04-30 10:03 | 25.10487 | 77.25313 | 35999 ft | 497 kts | 358° |
| 2026-04-30 10:03 | 25.17386 | 77.25078 | 36002 ft | 496 kts | 358° |
| 2026-04-30 10:04 | 25.24301 | 77.24835 | 36000 ft | 496 kts | 358° |
| 2026-04-30 10:04 | 25.31201 | 77.24589 | 36003 ft | 496 kts | 358° |
| 2026-04-30 10:05 | 25.38100 | 77.24341 | 36000 ft | 495 kts | 358° |
| 2026-04-30 10:05 | 25.44990 | 77.24094 | 35999 ft | 495 kts | 358° |
| 2026-04-30 10:06 | 25.51837 | 77.23849 | 36002 ft | 495 kts | 358° |
| 2026-04-30 10:06 | 25.58726 | 77.23602 | 35999 ft | 495 kts | 358° |
| 2026-04-30 10:07 | 25.65612 | 77.23354 | 35999 ft | 495 kts | 358° |
| 2026-04-30 10:07 | 25.72505 | 77.23106 | 36000 ft | 495 kts | 358° |
| 2026-04-30 10:08 | 25.79392 | 77.22858 | 36002 ft | 495 kts | 358° |
| 2026-04-30 10:08 | 25.86284 | 77.22610 | 36000 ft | 495 kts | 358° |
| 2026-04-30 10:09 | 25.93178 | 77.22361 | 36000 ft | 495 kts | 358° |
| 2026-04-30 10:09 | 26.00072 | 77.22112 | 36001 ft | 496 kts | 358° |
| 2026-04-30 10:10 | 26.06968 | 77.21862 | 36000 ft | 496 kts | 358° |
| 2026-04-30 10:10 | 26.13830 | 77.21614 | 36004 ft | 496 kts | 358° |
| 2026-04-30 10:11 | 26.20722 | 77.21299 | 36002 ft | 496 kts | 357° |
| 2026-04-30 10:11 | 26.27615 | 77.20926 | 36000 ft | 495 kts | 357° |
| 2026-04-30 10:12 | 26.34507 | 77.20555 | 36000 ft | 495 kts | 357° |
| 2026-04-30 10:12 | 26.41401 | 77.20195 | 36003 ft | 495 kts | 357° |
| 2026-04-30 10:13 | 26.48291 | 77.19839 | 36002 ft | 495 kts | 357° |
| 2026-04-30 10:13 | 26.55181 | 77.19483 | 36001 ft | 496 kts | 357° |
| 2026-04-30 10:14 | 26.62071 | 77.19126 | 36003 ft | 496 kts | 357° |
| 2026-04-30 10:14 | 26.72401 | 77.18589 | 36000 ft | 496 kts | 357° |
| 2026-04-30 10:15 | 26.79247 | 77.18233 | 36000 ft | 495 kts | 357° |
| 2026-04-30 10:15 | 26.86114 | 77.17875 | 35997 ft | 493 kts | 357° |
| 2026-04-30 10:16 | 26.92946 | 77.17519 | 35995 ft | 490 kts | 357° |
| 2026-04-30 10:17 | 27.03060 | 77.16990 | 35159 ft | 479 kts | 357° |
| 2026-04-30 10:17 | 27.09676 | 77.16644 | 34153 ft | 471 kts | 357° |
| 2026-04-30 10:17 | 27.12931 | 77.16474 | 33701 ft | 467 kts | 357° |
| 2026-04-30 10:18 | 27.16157 | 77.16305 | 33314 ft | 461 kts | 357° |
| 2026-04-30 10:18 | 27.19349 | 77.16137 | 33042 ft | 453 kts | 357° |
| 2026-04-30 10:18 | 27.22469 | 77.15973 | 32746 ft | 446 kts | 357° |
| 2026-04-30 10:19 | 27.28589 | 77.15652 | 32009 ft | 435 kts | 357° |
| 2026-04-30 10:19 | 27.31596 | 77.15494 | 31603 ft | 431 kts | 357° |
| 2026-04-30 10:19 | 27.34581 | 77.15337 | 31191 ft | 427 kts | 357° |
| 2026-04-30 10:19 | 27.37534 | 77.15182 | 30779 ft | 424 kts | 357° |
| 2026-04-30 10:20 | 27.40469 | 77.15027 | 30365 ft | 420 kts | 357° |
| 2026-04-30 10:20 | 27.46261 | 77.14722 | 29540 ft | 413 kts | 357° |
| 2026-04-30 10:20 | 27.49119 | 77.14572 | 29137 ft | 410 kts | 357° |
| 2026-04-30 10:21 | 27.51955 | 77.14423 | 28731 ft | 406 kts | 357° |
| 2026-04-30 10:21 | 27.54766 | 77.14276 | 28321 ft | 403 kts | 357° |
| 2026-04-30 10:21 | 27.57554 | 77.14131 | 27917 ft | 400 kts | 357° |
| 2026-04-30 10:21 | 27.60322 | 77.13986 | 27507 ft | 397 kts | 357° |
| 2026-04-30 10:22 | 27.63072 | 77.13843 | 27097 ft | 394 kts | 357° |
| 2026-04-30 10:22 | 27.65798 | 77.13912 | 26663 ft | 391 kts | 11° |
| 2026-04-30 10:22 | 27.68422 | 77.14653 | 26225 ft | 387 kts | 16° |
| 2026-04-30 10:22 | 27.70994 | 77.15523 | 25821 ft | 385 kts | 17° |
| 2026-04-30 10:23 | 27.73549 | 77.16400 | 25412 ft | 382 kts | 16° |
| 2026-04-30 10:23 | 27.76091 | 77.17256 | 25028 ft | 379 kts | 16° |
| 2026-04-30 10:23 | 27.78619 | 77.18089 | 24539 ft | 380 kts | 15° |
| 2026-04-30 10:23 | 27.81174 | 77.18915 | 23911 ft | 384 kts | 15° |
| 2026-04-30 10:24 | 27.83759 | 77.19741 | 23311 ft | 387 kts | 15° |
| 2026-04-30 10:24 | 27.86325 | 77.20557 | 22716 ft | 390 kts | 15° |
| 2026-04-30 10:24 | 27.88952 | 77.21391 | 22101 ft | 393 kts | 15° |
| 2026-04-30 10:24 | 27.91591 | 77.22228 | 21501 ft | 396 kts | 15° |
| 2026-04-30 10:25 | 27.94259 | 77.23075 | 20890 ft | 399 kts | 15° |
| 2026-04-30 10:25 | 27.96938 | 77.23927 | 20279 ft | 401 kts | 15° |
| 2026-04-30 10:25 | 27.99637 | 77.24786 | 19668 ft | 403 kts | 15° |
| 2026-04-30 10:25 | 28.02342 | 77.25648 | 19044 ft | 405 kts | 15° |
| 2026-04-30 10:26 | 28.05057 | 77.26510 | 18440 ft | 406 kts | 15° |
| 2026-04-30 10:26 | 28.07826 | 77.27173 | 17816 ft | 407 kts | 8° |
| 2026-04-30 10:26 | 28.10637 | 77.27582 | 17205 ft | 408 kts | 6° |
| 2026-04-30 10:26 | 28.13461 | 77.27916 | 16580 ft | 408 kts | 5° |
| 2026-04-30 10:27 | 28.16284 | 77.28255 | 15974 ft | 409 kts | 6° |
| 2026-04-30 10:27 | 28.19113 | 77.28621 | 15357 ft | 409 kts | 6° |
| 2026-04-30 10:27 | 28.21937 | 77.29014 | 14737 ft | 409 kts | 7° |
| 2026-04-30 10:27 | 28.24756 | 77.29422 | 14116 ft | 408 kts | 7° |
| 2026-04-30 10:28 | 28.27572 | 77.29837 | 13498 ft | 408 kts | 7° |
| 2026-04-30 10:28 | 28.30385 | 77.30251 | 12878 ft | 407 kts | 7° |
| 2026-04-30 10:28 | 28.33170 | 77.30577 | 12234 ft | 399 kts | 359° |
| 2026-04-30 10:28 | 28.35880 | 77.30015 | 11593 ft | 397 kts | 338° |
| 2026-04-30 10:29 | 28.38232 | 77.28418 | 10980 ft | 394 kts | 319° |
| 2026-04-30 10:29 | 28.40057 | 77.26124 | 10391 ft | 392 kts | 304° |
| 2026-04-30 10:29 | 28.41306 | 77.23400 | 9971 ft | 385 kts | 287° |
| 2026-04-30 10:29 | 28.41903 | 77.20534 | 10022 ft | 361 kts | 282° |
| 2026-04-30 10:30 | 28.42435 | 77.17812 | 9985 ft | 345 kts | 283° |
| 2026-04-30 10:30 | 28.42977 | 77.15214 | 9978 ft | 329 kts | 283° |
| 2026-04-30 10:30 | 28.43507 | 77.12746 | 9956 ft | 315 kts | 283° |
| 2026-04-30 10:30 | 28.44017 | 77.10383 | 9851 ft | 302 kts | 284° |
| 2026-04-30 10:31 | 28.44510 | 77.08102 | 9692 ft | 292 kts | 283° |
| 2026-04-30 10:31 | 28.44987 | 77.05893 | 9420 ft | 285 kts | 283° |
| 2026-04-30 10:31 | 28.45456 | 77.03717 | 9048 ft | 282 kts | 283° |
| 2026-04-30 10:31 | 28.45918 | 77.01571 | 8624 ft | 281 kts | 283° |
| 2026-04-30 10:32 | 28.46382 | 76.99411 | 8258 ft | 277 kts | 283° |
| 2026-04-30 10:32 | 28.46829 | 76.97333 | 8140 ft | 263 kts | 283° |
| 2026-04-30 10:32 | 28.47251 | 76.95368 | 8018 ft | 250 kts | 283° |
| 2026-04-30 10:32 | 28.47654 | 76.93491 | 7777 ft | 240 kts | 283° |
| 2026-04-30 10:33 | 28.48038 | 76.91704 | 7464 ft | 233 kts | 283° |
| 2026-04-30 10:33 | 28.48420 | 76.89924 | 7205 ft | 224 kts | 283° |
| 2026-04-30 10:33 | 28.48783 | 76.88229 | 6868 ft | 219 kts | 283° |
| 2026-04-30 10:33 | 28.49141 | 76.86554 | 6452 ft | 217 kts | 283° |
| 2026-04-30 10:34 | 28.49496 | 76.84898 | 6076 ft | 213 kts | 283° |
| 2026-04-30 10:34 | 28.49845 | 76.83315 | 5762 ft | 205 kts | 285° |
| 2026-04-30 10:34 | 28.50227 | 76.81782 | 5397 ft | 197 kts | 285° |
| 2026-04-30 10:34 | 28.50596 | 76.80316 | 5041 ft | 190 kts | 286° |
| 2026-04-30 10:35 | 28.50968 | 76.78862 | 5029 ft | 194 kts | 286° |
| 2026-04-30 10:35 | 28.51369 | 76.77392 | 4993 ft | 193 kts | 295° |
| 2026-04-30 10:35 | 28.52318 | 76.76389 | 5009 ft | 193 kts | 343° |
| 2026-04-30 10:35 | 28.53655 | 76.76423 | 5004 ft | 196 kts | 21° |
| 2026-04-30 10:36 | 28.54746 | 76.77316 | 5007 ft | 194 kts | 49° |
| 2026-04-30 10:36 | 28.55553 | 76.78502 | 5014 ft | 185 kts | 54° |
| 2026-04-30 10:36 | 28.56281 | 76.79656 | 4972 ft | 175 kts | 54° |
| 2026-04-30 10:36 | 28.56999 | 76.80790 | 5006 ft | 176 kts | 54° |
| 2026-04-30 10:37 | 28.57710 | 76.81909 | 5011 ft | 177 kts | 53° |
| 2026-04-30 10:37 | 28.58427 | 76.83033 | 4992 ft | 175 kts | 53° |
| 2026-04-30 10:37 | 28.58998 | 76.84226 | 4974 ft | 172 kts | 78° |
| 2026-04-30 10:37 | 28.59243 | 76.85644 | 5001 ft | 185 kts | 72° |
| 2026-04-30 10:38 | 28.59390 | 76.87025 | 4994 ft | 174 kts | 103° |
| 2026-04-30 10:38 | 28.59021 | 76.88341 | 5019 ft | 177 kts | 106° |
| 2026-04-30 10:38 | 28.58717 | 76.89692 | 4980 ft | 175 kts | 104° |
| 2026-04-30 10:38 | 28.58430 | 76.91032 | 4672 ft | 173 kts | 104° |
| 2026-04-30 10:39 | 28.58147 | 76.92348 | 4148 ft | 170 kts | 104° |
| 2026-04-30 10:39 | 28.57870 | 76.93627 | 3608 ft | 163 kts | 104° |
| 2026-04-30 10:39 | 28.57602 | 76.94864 | 3055 ft | 159 kts | 104° |
| 2026-04-30 10:39 | 28.57350 | 76.96036 | 2664 ft | 145 kts | 104° |
| 2026-04-30 10:40 | 28.57077 | 76.97288 | 2573 ft | 175 kts | 104° |
| 2026-04-30 10:40 | 28.56799 | 76.98590 | 2310 ft | 160 kts | 104° |
| 2026-04-30 10:40 | 28.56545 | 76.99793 | 1986 ft | 157 kts | 103° |
| 2026-04-30 10:40 | 28.56276 | 77.00994 | 1684 ft | 156 kts | 107° |
| 2026-04-30 10:41 | 28.55952 | 77.02161 | 1433 ft | 155 kts | 108° |
| 2026-04-30 10:41 | 28.55625 | 77.03336 | 1221 ft | 156 kts | 105° |
| 2026-04-30 10:41 | 28.55333 | 77.04516 | 1037 ft | 155 kts | 105° |
| 2026-04-30 10:41 | 28.55059 | 77.05697 | 934 ft | 155 kts | 103° |
| 2026-04-30 10:42 | 28.54812 | 77.06887 | 877 ft | 155 kts | 103° |
| 2026-04-30 10:42 | 28.54562 | 77.08089 | 751 ft | 158 kts | 102° |
| 2026-04-30 10:42 | 28.54431 | 77.08725 | 754 ft | 72 kts | 105° |
| 2026-04-30 10:42 | 28.54342 | 77.09129 | 759 ft | 37 kts | 104° |
| 2026-04-30 10:43 | 28.54339 | 77.09304 | 756 ft | 15 kts | 36° |
| 2026-04-30 10:43 | 28.54434 | 77.09351 | 758 ft | 15 kts | 14° |
| 2026-04-30 10:43 | 28.54534 | 77.09380 | 757 ft | 15 kts | 14° |
| 2026-04-30 10:43 | 28.54635 | 77.09409 | 754 ft | 15 kts | 14° |
| 2026-04-30 10:44 | 28.54734 | 77.09432 | 756 ft | 12 kts | 353° |
| 2026-04-30 10:44 | 28.54774 | 77.09354 | 757 ft | 13 kts | 271° |
| 2026-04-30 10:44 | 28.54810 | 77.09269 | 754 ft | 13 kts | 323° |
| 2026-04-30 10:44 | 28.54885 | 77.09216 | 752 ft | 13 kts | 329° |
| 2026-04-30 10:45 | 28.54957 | 77.09203 | 753 ft | 10 kts | 38° |
| 2026-04-30 10:45 | 28.54964 | 77.09223 | 752 ft | 0 kts | 75° |